Time;durP1;ratioP1;P1;durP2;ratioP2;P2;SDS_P1;SDS_P2;PMS_P1;PMS_P2;Temp;Humidity;BMP_temperature;BMP_pressure;BME280_temperature;BME280_humidity;BME280_pressure;Samples;Min_cycle;Max_cycle;Signal;HPM_P1;HPM_P2
2022/11/06 00:00:45;;;;;;;22.03;8.20;;;;;;;3.12;100.00;100764.56;1401599;102;21162;-77
2022/11/06 00:03:11;;;;;;;24.70;9.93;;;;;;;3.10;100.00;100761.14;1426703;100;21129;-74
2022/11/06 00:08:31;;;;;;;22.60;9.27;;;;;;;3.11;100.00;100760.66;1475789;97;21162;-77
2022/11/06 00:10:59;;;;;;;25.07;9.00;;;;;;;3.12;100.00;100760.55;1473515;97;21234;-75
2022/11/06 00:13:25;;;;;;;23.90;10.10;;;;;;;3.13;100.00;100770.27;1472686;97;21141;-75
2022/11/06 00:15:54;;;;;;;25.27;10.30;;;;;;;3.12;100.00;100763.23;1462806;97;21104;-76
2022/11/06 00:18:23;;;;;;;25.10;11.30;;;;;;;3.14;100.00;100771.14;1446979;99;21670;-77
2022/11/06 00:20:51;;;;;;;23.93;9.97;;;;;;;3.12;100.00;100770.39;1473460;95;21209;-75
2022/11/06 00:23:18;;;;;;;22.43;8.80;;;;;;;3.09;100.00;100764.77;1503770;95;21568;-76
2022/11/06 00:25:44;;;;;;;26.20;10.03;;;;;;;3.08;100.00;100758.19;1553713;90;21011;-75
2022/11/06 00:28:11;;;;;;;26.13;10.53;;;;;;;3.07;100.00;100753.82;1637659;88;21057;-76
2022/11/06 00:30:41;;;;;;;27.90;10.17;;;;;;;3.06;100.00;100756.95;1638030;88;21061;-75
2022/11/06 00:33:09;;;;;;;25.13;9.77;;;;;;;3.04;100.00;100753.53;1629973;88;21018;-75
2022/11/06 00:35:38;;;;;;;23.57;9.90;;;;;;;3.01;100.00;100751.06;1628584;88;21109;-75
2022/11/06 00:38:05;;;;;;;25.80;9.57;;;;;;;2.98;100.00;100743.28;1628439;88;21058;-76
2022/11/06 00:40:32;;;;;;;23.30;10.30;;;;;;;2.94;100.00;100745.30;1701940;84;21050;-75
2022/11/06 00:42:59;;;;;;;25.70;9.93;;;;;;;2.91;100.00;100747.33;1711305;84;21058;-75
2022/11/06 00:45:25;;;;;;;19.33;8.67;;;;;;;2.89;100.00;100750.59;1714593;84;21015;-75
2022/11/06 00:47:52;;;;;;;20.80;8.27;;;;;;;2.88;100.00;100753.72;1713669;82;21583;-76
2022/11/06 00:50:20;;;;;;;22.63;8.83;;;;;;;2.88;100.00;100748.38;1714316;83;20984;-75
2022/11/06 00:52:47;;;;;;;19.87;9.10;;;;;;;2.90;100.00;100749.13;1714253;84;21035;-75
2022/11/06 00:55:14;;;;;;;19.73;8.40;;;;;;;2.89;100.00;100747.43;1714427;84;20995;-75
2022/11/06 00:57:41;;;;;;;20.17;8.33;;;;;;;2.85;100.00;100744.57;1714254;84;21035;-75
2022/11/06 01:00:10;;;;;;;23.27;8.80;;;;;;;2.83;100.00;100746.50;1714413;84;21007;-76
2022/11/06 01:02:37;;;;;;;19.53;8.30;;;;;;;2.80;100.00;100742.23;1714327;84;21492;-75
2022/11/06 01:05:05;;;;;;;20.30;7.93;;;;;;;2.78;100.00;100741.48;1714271;84;20999;-76
2022/11/06 01:07:31;;;;;;;19.13;8.50;;;;;;;2.76;100.00;100746.08;1714511;84;21512;-79
2022/11/06 01:09:59;;;;;;;18.57;7.60;;;;;;;2.72;100.00;100739.21;1714395;84;20991;-79
2022/11/06 01:12:25;;;;;;;19.87;7.53;;;;;;;2.68;100.00;100741.72;1714324;84;21050;-80
2022/11/06 01:14:53;;;;;;;19.30;7.07;;;;;;;2.66;100.00;100742.31;1714520;84;21026;-79
2022/11/06 01:17:19;;;;;;;17.93;7.43;;;;;;;2.64;100.00;100744.23;1714529;84;21098;-79
2022/11/06 01:19:46;;;;;;;19.03;7.37;;;;;;;2.63;100.00;100737.17;1714375;84;21019;-77
2022/11/06 01:22:13;;;;;;;17.13;7.00;;;;;;;2.64;100.00;100739.73;1714501;84;21488;-78
2022/11/06 01:24:39;;;;;;;19.03;7.30;;;;;;;2.65;100.00;100741.92;1714340;84;21524;-79
2022/11/06 01:27:06;;;;;;;18.13;7.17;;;;;;;2.65;100.00;100740.09;1714553;84;20992;-77
2022/11/06 01:29:33;;;;;;;17.20;7.23;;;;;;;2.65;100.00;100735.24;1714541;84;21047;-79
2022/11/06 01:32:01;;;;;;;15.30;7.07;;;;;;;2.62;100.00;100736.32;1714526;84;21050;-79
2022/11/06 01:34:28;;;;;;;13.60;6.90;;;;;;;2.60;100.00;100734.23;1714506;84;21019;-80
2022/11/06 01:36:55;;;;;;;16.53;7.17;;;;;;;2.58;100.00;100736.61;1714470;84;21031;-79
2022/11/06 01:39:23;;;;;;;15.20;6.63;;;;;;;2.52;100.00;100733.88;1714304;84;21031;-79
2022/11/06 01:41:51;;;;;;;14.37;6.47;;;;;;;2.49;100.00;100736.75;1714695;84;20995;-79
2022/11/06 01:44:44;;;;;;;16.43;6.60;;;;;;;2.47;100.00;100738.67;1714578;84;21078;-79
2022/11/06 01:47:26;;;;;;;16.07;6.47;;;;;;;2.45;100.00;100744.11;1714470;84;21073;-79
2022/11/06 01:49:56;;;;;;;16.60;6.53;;;;;;;2.43;100.00;100748.70;1714376;82;21015;-79
2022/11/06 01:52:23;;;;;;;15.57;5.93;;;;;;;2.40;100.00;100749.37;1714488;84;21015;-79
2022/11/06 01:54:55;;;;;;;14.73;5.93;;;;;;;2.39;100.00;100755.66;1714020;84;21035;-80
2022/11/06 01:57:22;;;;;;;13.97;6.63;;;;;;;2.36;100.00;100763.41;1714767;84;21524;-80
2022/11/06 01:59:51;;;;;;;13.17;5.90;;;;;;;2.34;100.00;100764.45;1714432;84;21067;-79
2022/11/06 02:02:18;;;;;;;14.73;6.20;;;;;;;2.32;100.00;100766.36;1715423;83;21033;-78
2022/11/06 02:04:47;;;;;;;14.40;6.63;;;;;;;2.29;100.00;100763.43;1719860;83;21027;-78
2022/11/06 02:07:16;;;;;;;16.07;6.63;;;;;;;2.25;100.00;100776.11;1710804;84;21512;-79
2022/11/06 02:09:43;;;;;;;15.27;6.83;;;;;;;2.22;100.00;100770.97;1710911;84;21026;-79
2022/11/06 02:12:30;;;;;;;14.40;5.57;;;;;;;2.20;100.00;100771.55;1710851;84;21034;-79
2022/11/06 02:15:11;;;;;;;12.47;5.60;;;;;;;2.18;100.00;100766.80;1700641;84;21055;-79
2022/11/06 02:18:18;;;;;;;12.83;5.40;;;;;;;2.19;100.00;100766.31;1712245;83;21023;-78
2022/11/06 02:21:12;;;;;;;13.00;5.67;;;;;;;2.20;100.00;100768.88;1711835;83;21054;-78
2022/11/06 02:24:26;;;;;;;13.10;5.60;;;;;;;2.22;100.00;100778.98;1709522;84;21018;-79
2022/11/06 02:27:23;;;;;;;18.60;6.53;;;;;;;2.21;100.00;100775.95;1661024;86;21074;-75
2022/11/06 02:30:10;;;;;;;14.30;6.77;;;;;;;2.17;100.00;100784.23;1660504;86;21090;-76
2022/11/06 02:32:56;;;;;;;16.13;6.83;;;;;;;2.08;100.00;100780.34;1660354;86;21022;-76
2022/11/06 02:35:35;;;;;;;17.27;6.80;;;;;;;2.02;100.00;100776.72;1660490;86;21051;-75
2022/11/06 02:38:07;;;;;;;12.63;5.90;;;;;;;1.95;100.00;100782.95;1660251;86;21063;-75
2022/11/06 02:40:37;;;;;;;13.43;5.70;;;;;;;1.94;100.00;100792.38;1660678;86;21058;-76
2022/11/06 02:43:06;;;;;;;14.60;6.60;;;;;;;1.90;100.00;100789.89;1660594;86;21050;-75
2022/11/06 02:45:54;;;;;;;13.70;6.43;;;;;;;1.92;100.00;100791.14;1660858;86;21046;-75
2022/11/06 02:48:26;;;;;;;13.27;6.20;;;;;;;1.93;100.00;100795.53;1659854;86;21042;-74
2022/11/06 02:50:52;;;;;;;16.27;6.77;;;;;;;1.94;100.00;100797.22;1663832;85;21592;-76
2022/11/06 02:53:20;;;;;;;16.43;6.83;;;;;;;1.98;100.00;100801.41;1620955;86;21092;-76
2022/11/06 02:55:56;;;;;;;12.73;5.83;;;;;;;1.98;100.00;100801.41;1620244;89;21121;-76
2022/11/06 02:58:31;;;;;;;15.27;6.73;;;;;;;1.98;100.00;100811.22;1654432;85;21065;-75
2022/11/06 03:01:09;;;;;;;18.23;6.30;;;;;;;1.96;100.00;100805.13;1651995;87;21116;-74
2022/11/06 03:03:38;;;;;;;15.43;6.47;;;;;;;1.96;100.00;100811.80;1642121;87;21057;-76
2022/11/06 03:06:12;;;;;;;14.47;6.10;;;;;;;1.98;100.00;100802.73;1649769;87;21033;-75
2022/11/06 03:08:43;;;;;;;14.27;6.03;;;;;;;2.00;100.00;100814.19;1629305;88;21015;-76
2022/11/06 03:11:29;;;;;;;17.90;7.10;;;;;;;1.99;100.00;100805.80;1629623;88;21162;-74
2022/11/06 03:14:18;;;;;;;18.47;7.77;;;;;;;1.98;100.00;100804.07;1604108;88;21084;-75
2022/11/06 03:16:58;;;;;;;15.77;6.60;;;;;;;1.93;100.00;100810.20;1555241;92;21112;-75
2022/11/06 03:19:35;;;;;;;18.83;8.43;;;;;;;1.87;100.00;100801.23;1555140;92;21602;-75
2022/11/06 03:22:10;;;;;;;16.53;7.60;;;;;;;1.85;100.00;100803.99;1555164;92;21125;-76
2022/11/06 03:24:48;;;;;;;18.27;7.53;;;;;;;1.83;100.00;100800.57;1554895;92;21108;-75
2022/11/06 03:27:23;;;;;;;20.00;7.97;;;;;;;1.82;100.00;100804.18;1551927;92;21091;-76
2022/11/06 03:29:55;;;;;;;20.23;9.17;;;;;;;1.80;100.00;100804.75;1490093;96;21100;-75
2022/11/06 03:32:43;;;;;;;17.63;7.17;;;;;;;1.80;100.00;100804.75;1489893;96;21596;-75
2022/11/06 03:35:27;;;;;;;22.90;8.23;;;;;;;1.80;100.00;100800.75;1490119;96;21438;-75
2022/11/06 03:38:04;;;;;;;21.60;8.97;;;;;;;1.82;100.00;100804.18;1489962;96;21146;-74
2022/11/06 03:40:33;;;;;;;17.57;8.13;;;;;;;1.82;100.00;100804.18;1490166;96;21593;-76
2022/11/06 03:43:03;;;;;;;17.43;8.07;;;;;;;1.83;100.00;100810.39;1490172;94;21717;-76
2022/11/06 03:45:30;;;;;;;21.07;8.57;;;;;;;1.85;100.00;100809.81;1490398;96;21125;-75
2022/11/06 03:48:02;;;;;;;19.43;7.80;;;;;;;1.86;100.00;100816.84;1490610;95;21144;-73
2022/11/06 03:50:33;;;;;;;16.23;7.57;;;;;;;1.88;100.00;100812.30;1511869;92;21113;-75
2022/11/06 03:53:14;;;;;;;16.77;7.03;;;;;;;1.92;100.00;100812.96;1547015;93;21157;-76
2022/11/06 03:55:48;;;;;;;17.00;7.17;;;;;;;1.95;100.00;100808.74;1547367;93;21105;-76
2022/11/06 03:58:19;;;;;;;18.40;8.03;;;;;;;2.01;100.00;100811.04;1543822;93;21143;-76
2022/11/06 04:00:46;;;;;;;17.53;7.60;;;;;;;2.05;100.00;100807.21;1573742;90;21062;-76
2022/11/06 04:03:24;;;;;;;16.57;6.93;;;;;;;2.06;100.00;100814.27;1604652;89;21050;-75
2022/11/06 04:05:56;;;;;;;17.90;7.30;;;;;;;2.07;100.00;100816.84;1616115;89;21026;-75
2022/11/06 04:13:57;;;;;;;17.47;7.73;;;;;;;2.16;100.00;100822.53;1617532;89;21054;-76
2022/11/06 04:16:25;;;;;;;17.53;7.80;;;;;;;2.16;100.00;100815.86;1617692;89;21069;-75
2022/11/06 04:18:53;;;;;;;16.20;7.50;;;;;;;2.14;100.00;100817.78;1617580;89;21074;-75
2022/11/06 04:21:58;;;;;;;17.23;7.73;;;;;;;2.13;100.00;100818.27;1617945;89;21516;-75
2022/11/06 04:27:59;;;;;;;18.07;7.80;;;;;;;2.17;100.00;100826.44;1608439;89;21054;-76
2022/11/06 04:30:26;;;;;;;16.07;7.42;;;;;;;2.19;100.00;100823.68;1611599;89;21118;-75
2022/11/06 04:33:19;;;;;;;17.43;7.77;;;;;;;2.19;100.00;100827.69;1579232;88;21506;-76
2022/11/06 04:36:36;;;;;;;16.02;7.22;;;;;;;2.19;100.00;100833.87;1636675;88;21076;-75
2022/11/06 04:39:29;;;;;;;17.67;7.43;;;;;;;2.20;100.00;100833.41;1572661;91;21075;-75
2022/11/06 04:42:24;;;;;;;24.85;10.03;;;;;;;2.20;100.00;100838.75;1590068;90;21127;-74
2022/11/06 04:44:58;;;;;;;17.70;8.00;;;;;;;2.21;100.00;100839.11;1587655;90;21137;-75
2022/11/06 04:47:24;;;;;;;19.23;8.58;;;;;;;2.21;100.00;100837.32;1588010;90;21042;-76
2022/11/06 04:49:52;;;;;;;17.97;7.70;;;;;;;2.21;100.00;100839.99;1588027;90;21041;-76
2022/11/06 04:52:22;;;;;;;20.90;7.87;;;;;;;2.21;100.00;100834.66;1586083;90;21074;-75
2022/11/06 04:54:48;;;;;;;17.47;7.57;;;;;;;2.23;100.00;100842.53;1581811;91;21046;-76
2022/11/06 04:57:15;;;;;;;15.80;7.13;;;;;;;2.25;100.00;100839.31;1581624;91;21069;-76
2022/11/06 04:59:42;;;;;;;18.27;7.40;;;;;;;2.29;100.00;100848.83;1581857;88;21074;-76
2022/11/06 05:02:09;;;;;;;19.80;8.23;;;;;;;2.34;100.00;100853.86;1577493;89;21043;-76
2022/11/06 05:04:37;;;;;;;18.97;7.90;;;;;;;2.38;100.00;100856.73;1619408;87;21099;-75
2022/11/06 05:07:03;;;;;;;18.27;7.33;;;;;;;2.43;100.00;100859.48;1625334;88;21554;-74
2022/11/06 05:09:30;;;;;;;17.90;8.10;;;;;;;2.48;100.00;100855.19;1625264;88;21117;-76
2022/11/06 05:11:59;;;;;;;16.23;7.43;;;;;;;2.52;100.00;100862.52;1625528;88;21051;-75
2022/11/06 05:14:25;;;;;;;20.63;8.23;;;;;;;2.56;100.00;100859.53;1630446;84;21007;-75
2022/11/06 05:16:52;;;;;;;20.60;9.07;;;;;;;2.60;100.00;100861.06;1700672;84;21065;-74
2022/11/06 05:19:20;;;;;;;22.63;9.43;;;;;;;2.60;100.00;100851.72;1700766;84;21010;-77
2022/11/06 05:24:34;;;;;;;23.53;9.97;;;;;;;2.61;100.00;100864.09;1701992;84;21002;-74
2022/11/06 05:27:01;;;;;;;21.83;9.70;;;;;;;2.63;100.00;100870.19;1701244;84;21053;-75
2022/11/06 05:29:29;;;;;;;20.17;8.73;;;;;;;2.64;100.00;100875.92;1701245;84;21103;-75
2022/11/06 05:31:56;;;;;;;21.27;9.73;;;;;;;2.66;100.00;100881.17;1701366;84;21018;-74
2022/11/06 05:34:23;;;;;;;19.37;8.63;;;;;;;2.67;100.00;100874.85;1701145;84;21006;-75
2022/11/06 05:36:50;;;;;;;22.60;10.13;;;;;;;2.69;100.00;100878.27;1701498;84;21539;-74
2022/11/06 05:39:17;;;;;;;19.23;8.80;;;;;;;2.73;100.00;100884.30;1701855;83;21002;-76
2022/11/06 05:41:44;;;;;;;19.80;8.03;;;;;;;2.74;100.00;100875.32;1700921;84;21026;-75
2022/11/06 05:44:11;;;;;;;18.80;8.33;;;;;;;2.78;100.00;100875.48;1701675;84;21038;-74
2022/11/06 05:46:39;;;;;;;17.73;8.30;;;;;;;2.82;100.00;100875.20;1701673;84;21085;-75
2022/11/06 05:49:08;;;;;;;19.87;8.67;;;;;;;2.85;100.00;100873.66;1701494;84;21069;-75
2022/11/06 05:51:35;;;;;;;26.60;9.93;;;;;;;2.90;100.00;100869.83;1708308;82;21031;-75
2022/11/06 05:54:03;;;;;;;23.83;10.27;;;;;;;2.91;100.00;100877.74;1685540;83;21027;-75
2022/11/06 05:56:30;;;;;;;21.60;8.80;;;;;;;2.94;100.00;100873.54;1757739;82;21064;-75
2022/11/06 05:58:57;;;;;;;18.97;8.37;;;;;;;2.96;100.00;100880.97;1751811;82;21528;-75
2022/11/06 06:01:24;;;;;;;18.50;7.70;;;;;;;3.01;100.00;100881.98;1747341;82;21033;-74
2022/11/06 06:03:51;;;;;;;18.97;7.70;;;;;;;3.03;100.00;100888.95;1747570;82;20998;-75
2022/11/06 06:06:20;;;;;;;19.97;8.00;;;;;;;3.08;100.00;100890.45;1742449;82;21015;-75
2022/11/06 06:08:48;;;;;;;21.97;9.87;;;;;;;3.11;100.00;100884.42;1741225;82;21035;-75
2022/11/06 06:11:15;;;;;;;20.13;8.73;;;;;;;3.15;100.00;100895.31;1741188;82;21521;-76
2022/11/06 06:13:41;;;;;;;18.73;8.47;;;;;;;3.17;100.00;100891.17;1741426;82;21051;-75
2022/11/06 06:16:09;;;;;;;20.30;8.27;;;;;;;3.19;100.00;100890.61;1741387;82;21501;-75
2022/11/06 06:18:36;;;;;;;19.90;8.43;;;;;;;3.25;100.00;100889.34;1741636;82;21441;-75
2022/11/06 06:21:04;;;;;;;18.63;8.57;;;;;;;3.30;100.00;100888.55;1741388;82;21008;-75
2022/11/06 06:23:31;;;;;;;17.83;8.33;;;;;;;3.35;100.00;100889.95;1741047;82;21011;-76
2022/11/06 06:25:58;;;;;;;21.03;9.13;;;;;;;3.38;100.00;100884.86;1741598;82;21482;-76
2022/11/06 06:28:25;;;;;;;22.30;9.47;;;;;;;3.37;100.00;100885.35;1741144;82;21015;-76
2022/11/06 06:30:52;;;;;;;18.70;8.53;;;;;;;3.35;100.00;100887.77;1741498;82;20966;-74
2022/11/06 06:33:20;;;;;;;15.07;7.23;;;;;;;3.33;100.00;100878.97;1741078;82;21119;-75
2022/11/06 06:35:47;;;;;;;19.60;7.93;;;;;;;3.35;100.00;100885.09;1741329;82;21070;-75
2022/11/06 06:38:14;;;;;;;18.47;8.37;;;;;;;3.39;100.00;100882.58;1741507;82;21023;-76
2022/11/06 06:40:42;;;;;;;21.73;8.63;;;;;;;3.44;100.00;100885.80;1741121;82;21489;-75
2022/11/06 06:43:09;;;;;;;17.77;7.97;;;;;;;3.46;100.00;100883.88;1741143;82;21004;-75
2022/11/06 06:45:36;;;;;;;17.83;7.33;;;;;;;3.47;100.00;100887.39;1741240;82;21039;-75
2022/11/06 06:48:04;;;;;;;20.67;7.87;;;;;;;3.48;100.00;100887.30;1741119;81;21035;-75
2022/11/06 06:50:31;;;;;;;16.63;6.93;;;;;;;3.53;100.00;100884.31;1738995;82;21532;-75
2022/11/06 06:52:59;;;;;;;16.70;7.63;;;;;;;3.58;100.00;100881.70;1716491;84;21065;-75
2022/11/06 06:55:28;;;;;;;18.90;8.33;;;;;;;3.66;100.00;100889.67;1716543;83;21080;-75
2022/11/06 06:57:58;;;;;;;19.47;8.87;;;;;;;3.68;100.00;100885.91;1714256;83;21012;-74
2022/11/06 07:00:25;;;;;;;17.40;8.10;;;;;;;3.67;100.00;100883.38;1667089;86;21073;-74
2022/11/06 07:02:52;;;;;;;15.30;6.87;;;;;;;3.64;100.00;100883.09;1655749;86;21003;-74
2022/11/06 07:05:19;;;;;;;15.97;7.47;;;;;;;3.66;100.00;100882.98;1662669;86;21082;-75
2022/11/06 07:07:46;;;;;;;16.77;7.60;;;;;;;3.66;100.00;100885.66;1662793;86;21531;-75
2022/11/06 07:10:15;;;;;;;18.30;7.90;;;;;;;3.68;100.00;100879.72;1662715;86;21038;-75
2022/11/06 07:12:42;;;;;;;22.67;8.10;;;;;;;3.71;100.00;100876.35;1662515;86;21074;-76
2022/11/06 07:15:12;;;;;;;20.17;8.07;;;;;;;3.73;100.00;100883.78;1662639;86;21018;-75
2022/11/06 07:17:41;;;;;;;17.73;7.60;;;;;;;3.79;100.00;100877.17;1662646;86;21058;-75
2022/11/06 07:20:09;;;;;;;22.03;8.10;;;;;;;3.84;100.00;100888.38;1640283;86;21033;-75
2022/11/06 07:22:37;;;;;;;19.97;8.30;;;;;;;3.88;100.00;100879.20;1662636;86;21028;-74
2022/11/06 07:25:07;;;;;;;18.77;6.53;;;;;;;3.93;100.00;100885.55;1662612;86;21527;-75
2022/11/06 07:27:34;;;;;;;14.77;6.97;;;;;;;3.95;100.00;100883.65;1662688;86;21066;-75
2022/11/06 07:30:01;;;;;;;19.67;7.70;;;;;;;3.99;100.00;100880.63;1663143;86;21069;-75
2022/11/06 07:32:30;;;;;;;17.80;7.10;;;;;;;4.08;100.00;100880.95;1662949;86;21053;-76
2022/11/06 07:34:57;;;;;;;20.83;8.23;;;;;;;4.15;100.00;100876.88;1663539;86;21089;-76
2022/11/06 07:37:25;;;;;;;22.43;9.53;;;;;;;4.22;100.00;100888.02;1663170;86;21030;-75
2022/11/06 07:39:55;;;;;;;18.50;8.00;;;;;;;4.24;100.00;100880.72;1663251;84;21559;-75
2022/11/06 07:42:22;;;;;;;19.53;8.37;;;;;;;4.24;100.00;100877.55;1663378;86;21034;-76
2022/11/06 07:44:54;;;;;;;22.37;8.60;;;;;;;4.31;100.00;100882.84;1615126;89;21197;-75
2022/11/06 07:47:21;;;;;;;20.17;7.90;;;;;;;4.41;100.00;100887.06;1615847;89;21360;-75
2022/11/06 07:49:48;;;;;;;18.30;8.20;;;;;;;4.45;100.00;100883.19;1616158;87;21107;-76
2022/11/06 07:52:14;;;;;;;16.53;6.83;;;;;;;4.47;100.00;100885.77;1593796;88;21140;-76
2022/11/06 07:54:41;;;;;;;18.30;7.47;;;;;;;4.49;100.00;100879.31;1584579;90;21064;-74
2022/11/06 07:57:08;;;;;;;18.63;7.77;;;;;;;4.55;100.00;100883.36;1597469;88;21097;-74
2022/11/06 07:59:37;;;;;;;16.37;7.20;;;;;;;4.59;100.00;100886.70;1611168;89;21069;-74
2022/11/06 08:02:04;;;;;;;17.40;7.50;;;;;;;4.64;100.00;100881.83;1611900;88;21140;-74
2022/11/06 08:04:31;;;;;;;18.60;7.70;;;;;;;4.72;100.00;100880.80;1611846;89;21102;-74
2022/11/06 08:06:58;;;;;;;21.13;8.20;;;;;;;4.82;100.00;100892.56;1611638;89;21120;-75
2022/11/06 08:09:25;;;;;;;16.03;7.23;;;;;;;4.87;100.00;100895.76;1611249;89;21084;-74
2022/11/06 08:11:51;;;;;;;17.80;7.37;;;;;;;4.84;100.00;100894.64;1611989;89;21079;-75
2022/11/06 08:14:18;;;;;;;17.73;7.20;;;;;;;4.81;100.00;100896.20;1611760;89;21021;-75
2022/11/06 08:16:49;;;;;;;16.90;6.63;;;;;;;4.77;100.00;100901.42;1611917;88;21029;-74
2022/11/06 08:19:17;;;;;;;20.47;8.60;;;;;;;4.81;100.00;100911.42;1611845;89;21105;-75
2022/11/06 08:21:45;;;;;;;18.47;7.23;;;;;;;4.83;100.00;100915.69;1631599;85;21177;-74
2022/11/06 08:24:14;;;;;;;18.87;8.33;;;;;;;4.83;100.00;100914.34;1682358;85;21007;-74
2022/11/06 08:26:41;;;;;;;20.43;8.20;;;;;;;4.88;100.00;100912.69;1682824;85;21129;-75
2022/11/06 08:29:09;;;;;;;18.83;7.37;;;;;;;4.94;100.00;100912.25;1682346;85;21070;-74
2022/11/06 08:31:35;;;;;;;18.53;7.97;;;;;;;5.03;100.00;100916.92;1678710;85;21007;-74
2022/11/06 08:34:02;;;;;;;16.57;7.53;;;;;;;5.09;100.00;100917.79;1678359;85;21532;-75
2022/11/06 08:36:29;;;;;;;18.57;7.60;;;;;;;5.10;100.00;100922.20;1678156;85;21599;-75
2022/11/06 08:38:56;;;;;;;23.50;8.13;;;;;;;5.17;100.00;100917.23;1677703;85;21062;-74
2022/11/06 08:41:23;;;;;;;17.47;7.80;;;;;;;5.24;100.00;100926.53;1678193;85;21038;-74
2022/11/06 08:43:50;;;;;;;17.83;8.07;;;;;;;5.28;100.00;100927.16;1678148;85;21544;-74
2022/11/06 08:46:17;;;;;;;17.33;7.27;;;;;;;5.30;100.00;100935.94;1681410;85;21061;-75
2022/11/06 08:48:44;;;;;;;18.77;7.93;;;;;;;5.38;100.00;100938.03;1681791;85;21102;-74
2022/11/06 08:51:11;;;;;;;18.90;7.53;;;;;;;5.43;100.00;100935.86;1685565;84;21076;-74
2022/11/06 08:53:38;;;;;;;18.23;7.70;;;;;;;5.48;100.00;100938.56;1711802;84;21076;-74
2022/11/06 08:56:06;;;;;;;19.37;8.07;;;;;;;5.56;100.00;100942.48;1711803;84;21004;-74
2022/11/06 08:58:33;;;;;;;18.47;8.20;;;;;;;5.64;100.00;100938.75;1711629;84;20965;-73
2022/11/06 09:01:00;;;;;;;19.40;8.07;;;;;;;5.70;100.00;100946.31;1711842;84;21017;-74
2022/11/06 09:03:28;;;;;;;17.30;6.77;;;;;;;5.70;100.00;100947.66;1707655;84;21517;-74
2022/11/06 09:05:57;;;;;;;21.07;7.97;;;;;;;5.74;100.00;100957.66;1706009;83;21512;-74
2022/11/06 09:08:23;;;;;;;19.23;8.50;;;;;;;5.78;100.00;100953.30;1705549;84;21520;-74
2022/11/06 09:10:50;;;;;;;16.57;7.17;;;;;;;5.80;100.00;100958.06;1705840;84;21003;-74
2022/11/06 09:13:17;;;;;;;19.87;7.60;;;;;;;5.79;100.00;100964.88;1705731;84;21047;-74
2022/11/06 09:15:47;;;;;;;19.90;7.97;;;;;;;5.81;100.00;100966.98;1705687;84;21068;-75
2022/11/06 09:18:16;;;;;;;18.53;7.77;;;;;;;5.80;100.00;100974.16;1705830;84;21067;-74
2022/11/06 09:20:42;;;;;;;19.90;8.33;;;;;;;5.80;100.00;100984.05;1705752;84;21011;-74
2022/11/06 09:23:11;;;;;;;18.50;7.87;;;;;;;5.77;100.00;100981.59;1705626;84;21059;-73
2022/11/06 09:25:38;;;;;;;18.63;7.00;;;;;;;5.78;100.00;100984.66;1705619;84;21549;-75
2022/11/06 09:28:06;;;;;;;17.87;7.60;;;;;;;5.80;100.00;100988.08;1706030;84;21019;-75
2022/11/06 09:30:32;;;;;;;16.43;7.47;;;;;;;5.84;100.00;100991.77;1706278;83;21000;-75
2022/11/06 09:33:00;;;;;;;17.77;7.13;;;;;;;5.83;100.00;100997.25;1705550;84;21023;-75
2022/11/06 09:35:31;;;;;;;17.33;7.47;;;;;;;5.79;100.00;100994.41;1706112;83;21000;-75
2022/11/06 09:38:06;;;;;;;19.03;7.07;;;;;;;5.77;100.00;100997.23;1706115;84;20983;-74
2022/11/06 09:40:52;;;;;;;15.43;6.53;;;;;;;5.75;100.00;100998.30;1705905;84;21031;-74
2022/11/06 09:43:43;;;;;;;18.30;7.20;;;;;;;5.68;100.00;101001.47;1705782;84;21032;-74
2022/11/06 09:46:29;;;;;;;19.90;7.30;;;;;;;5.65;100.00;101010.23;1705599;84;21039;-75
2022/11/06 09:49:01;;;;;;;15.63;6.60;;;;;;;5.65;100.00;101008.40;1686174;85;21066;-74
2022/11/06 09:51:39;;;;;;;17.23;6.80;;;;;;;5.64;100.00;101008.02;1685973;85;21054;-72
2022/11/06 09:54:25;;;;;;;18.40;7.33;;;;;;;5.63;100.00;101002.30;1686122;85;21504;-73
2022/11/06 09:57:00;;;;;;;16.00;6.93;;;;;;;5.58;100.00;101009.83;1685897;85;21560;-73
2022/11/06 09:59:27;;;;;;;14.80;6.50;;;;;;;5.55;100.00;101009.20;1630479;88;21046;-74
2022/11/06 10:01:56;;;;;;;14.70;6.20;;;;;;;5.53;100.00;101005.30;1630232;88;21085;-73
2022/11/06 10:04:46;;;;;;;18.30;6.93;;;;;;;5.55;100.00;101010.55;1657116;87;21069;-73
2022/11/06 10:07:34;;;;;;;12.40;5.33;;;;;;;5.57;100.00;101004.58;1657180;86;21541;-74
2022/11/06 10:10:04;;;;;;;16.77;7.03;;;;;;;5.61;100.00;101000.69;1657314;86;21052;-73
2022/11/06 10:13:01;;;;;;;14.73;6.17;;;;;;;5.65;100.00;101011.08;1651103;86;21024;-74
2022/11/06 10:15:39;;;;;;;14.13;6.63;;;;;;;5.67;100.00;101003.77;1658883;86;21006;-74
2022/11/06 10:18:14;;;;;;;16.30;6.37;;;;;;;5.69;100.00;100998.29;1665706;86;21005;-73
2022/11/06 10:20:52;;;;;;;14.80;6.13;;;;;;;5.72;100.00;100992.70;1655965;86;21062;-74
2022/11/06 10:23:42;;;;;;;14.10;5.80;;;;;;;5.76;100.00;100991.98;1658763;86;21139;-74
2022/11/06 10:26:17;;;;;;;15.53;7.27;;;;;;;5.84;100.00;100988.20;1659509;86;21029;-75
2022/11/06 10:29:23;;;;;;;17.63;7.83;;;;;;;5.98;100.00;100984.50;1659108;86;21091;-76
2022/11/06 10:32:07;;;;;;;15.37;6.77;;;;;;;6.12;100.00;100984.28;1655767;86;21034;-73
2022/11/06 10:34:46;;;;;;;14.83;6.47;;;;;;;6.29;100.00;100986.16;1625580;88;21076;-74
2022/11/06 10:37:22;;;;;;;18.37;6.57;;;;;;;6.42;100.00;100978.33;1620772;87;20995;-74
2022/11/06 10:39:49;;;;;;;13.67;6.17;;;;;;;6.50;100.00;100976.41;1612235;88;21136;-75
2022/11/06 10:42:18;;;;;;;18.17;6.70;;;;;;;6.53;100.00;100977.97;1603234;89;21056;-74
2022/11/06 10:45:00;;;;;;;16.37;6.90;;;;;;;6.46;100.00;100982.97;1603383;89;21061;-73
2022/11/06 10:47:52;;;;;;;12.70;6.03;;;;;;;6.34;100.00;100982.59;1602476;89;21074;-75
2022/11/06 10:50:19;;;;;;;15.93;6.30;;;;;;;6.32;100.00;100982.74;1570780;90;21616;-74
2022/11/06 10:53:15;;;;;;;12.27;5.43;;;;;;;6.31;100.00;100987.73;1610287;88;21061;-75
2022/11/06 10:56:27;;;;;;;13.90;6.10;;;;;;;6.31;100.00;100985.55;1613879;89;21038;-75
2022/11/06 10:58:53;;;;;;;11.80;5.60;;;;;;;6.30;100.00;100986.51;1617274;87;21085;-74
2022/11/06 11:01:20;;;;;;;13.40;6.10;;;;;;;6.30;100.00;100986.51;1617259;89;21140;-74
2022/11/06 11:03:46;;;;;;;11.67;5.77;;;;;;;6.32;100.00;100988.12;1614772;89;21069;-74
2022/11/06 11:06:13;;;;;;;14.83;5.90;;;;;;;6.30;100.00;100995.41;1614155;88;21101;-75
2022/11/06 11:08:46;;;;;;;12.63;5.90;;;;;;;6.24;100.00;100999.94;1613706;88;21593;-73
2022/11/06 11:11:28;;;;;;;12.18;5.50;;;;;;;6.17;100.00;101005.42;1617193;88;21626;-74
2022/11/06 11:14:07;;;;;;;13.10;6.20;;;;;;;6.13;100.00;101001.27;1634419;87;21076;-74
2022/11/06 11:16:38;;;;;;;10.43;5.10;;;;;;;6.12;100.00;101012.97;1655605;87;21048;-73
2022/11/06 11:19:38;;;;;;;11.85;5.70;;;;;;;6.07;100.00;101019.56;1634656;87;21110;-74
2022/11/06 11:22:18;;;;;;;10.63;5.10;;;;;;;6.04;100.00;101020.28;1655572;87;21593;-75
2022/11/06 11:25:06;;;;;;;10.70;5.37;;;;;;;6.04;100.00;101017.59;1689234;84;21021;-74
2022/11/06 11:27:40;;;;;;;11.40;5.43;;;;;;;6.12;100.00;101019.69;1712970;84;21021;-74
2022/11/06 11:30:17;;;;;;;12.27;4.90;;;;;;;6.20;100.00;101020.80;1692136;83;20994;-74
2022/11/06 11:32:44;;;;;;;11.20;5.27;;;;;;;6.29;100.00;101018.39;1713563;84;20965;-72
2022/11/06 11:35:11;;;;;;;12.60;5.83;;;;;;;6.28;100.00;101021.55;1679192;86;21111;-75
2022/11/06 11:37:38;;;;;;;9.43;4.67;;;;;;;6.30;100.00;101023.62;1712580;83;20966;-73
2022/11/06 11:40:35;;;;;;;11.83;5.10;;;;;;;6.35;100.00;101021.93;1712043;84;21057;-74
2022/11/06 11:43:27;;;;;;;10.20;5.00;;;;;;;6.39;100.00;101020.70;1712162;84;20978;-74
2022/11/06 11:46:11;;;;;;;10.77;5.10;;;;;;;6.43;100.00;101023.05;1712394;84;21518;-74
2022/11/06 11:48:55;;;;;;;10.63;5.30;;;;;;;6.45;100.00;101030.98;1712120;84;21115;-75
2022/11/06 11:51:39;;;;;;;9.58;5.08;;;;;;;6.43;100.00;101029.76;1658856;86;21093;-75
2022/11/06 11:54:14;;;;;;;8.90;4.87;;;;;;;6.39;100.00;101035.02;1659036;86;21050;-73